Time;durP1;ratioP1;P1;durP2;ratioP2;P2;SDS_P1;SDS_P2;PMS_P1;PMS_P2;Temp;Humidity;BMP_temperature;BMP_pressure;BME280_temperature;BME280_humidity;BME280_pressure;Samples;Min_cycle;Max_cycle;Signal;HPM_P1;HPM_P2
2023/08/27 00:02:07;;;;;;;;;;;27.90;97.10;;;;;;5096245;28;19916;-70
2023/08/27 00:04:33;;;;;;;;;;;27.80;97.70;;;;;;5114769;28;19915;-72
2023/08/27 00:06:59;;;;;;;;;;;27.80;97.60;;;;;;5114909;28;19911;-69
2023/08/27 00:09:25;;;;;;;;;;;27.80;97.50;;;;;;5114601;28;19995;-70
2023/08/27 00:11:51;;;;;;;;;;;27.80;97.40;;;;;;5114415;28;19915;-70
2023/08/27 00:14:16;;;;;;;;;;;27.80;97.50;;;;;;5114531;28;20389;-70
2023/08/27 00:16:42;;;;;;;;;;;27.80;97.60;;;;;;5114968;28;20052;-70
2023/08/27 00:19:08;;;;;;;;;;;27.80;97.20;;;;;;5114697;28;19915;-70
2023/08/27 00:21:34;;;;;;;;;;;27.80;96.80;;;;;;5114846;28;19935;-70
2023/08/27 00:24:00;;;;;;;;;;;27.90;96.90;;;;;;5114263;28;20363;-71
2023/08/27 00:26:26;;;;;;;;;;;27.90;96.70;;;;;;5114620;28;20359;-70
2023/08/27 00:28:55;;;;;;;;;;;27.90;96.70;;;;;;5114028;28;19908;-70
2023/08/27 00:31:21;;;;;;;;;;;27.90;96.60;;;;;;5114225;28;19933;-70
2023/08/27 00:33:47;;;;;;;;;;;28.00;96.50;;;;;;5114738;28;20355;-70
2023/08/27 00:36:13;;;;;;;;;;;28.00;96.30;;;;;;5113967;28;20010;-70
2023/08/27 00:38:38;;;;;;;;;;;28.00;96.20;;;;;;5114091;28;19994;-70
2023/08/27 00:41:04;;;;;;;;;;;28.00;96.10;;;;;;5114551;28;19953;-70
2023/08/27 00:43:30;;;;;;;;;;;28.10;96.10;;;;;;5113781;28;19972;-71
2023/08/27 00:45:56;;;;;;;;;;;28.00;96.20;;;;;;5095714;28;20024;-70
2023/08/27 00:48:22;;;;;;;;;;;28.00;96.40;;;;;;5113997;28;19969;-70
2023/08/27 00:50:48;;;;;;;;;;;28.10;96.20;;;;;;5113986;28;20420;-70
2023/08/27 00:53:15;;;;;;;;;;;28.10;96.20;;;;;;5113945;28;19934;-70
2023/08/27 00:55:40;;;;;;;;;;;28.10;96.20;;;;;;5113861;28;19968;-70
2023/08/27 00:58:06;;;;;;;;;;;28.10;96.00;;;;;;5113958;28;19916;-70
2023/08/27 01:00:35;;;;;;;;;;;28.10;96.10;;;;;;5113752;28;19908;-70
2023/08/27 01:03:01;;;;;;;;;;;28.10;96.20;;;;;;5113655;28;20347;-70
2023/08/27 01:05:27;;;;;;;;;;;28.00;96.30;;;;;;5114312;28;19908;-70
2023/08/27 01:07:58;;;;;;;;;;;27.90;96.30;;;;;;5113850;28;20020;-70
2023/08/27 01:10:44;;;;;;;;;;;27.90;96.30;;;;;;5114348;28;19998;-70
2023/08/27 01:13:14;;;;;;;;;;;27.80;96.50;;;;;;5113519;28;19966;-70
2023/08/27 01:15:40;;;;;;;;;;;27.80;96.60;;;;;;5113683;28;19908;-70
2023/08/27 01:18:07;;;;;;;;;;;27.80;96.50;;;;;;5113705;28;19915;-70
2023/08/27 01:20:32;;;;;;;;;;;27.70;96.60;;;;;;5113741;28;19908;-70
2023/08/27 01:22:58;;;;;;;;;;;27.70;96.50;;;;;;5095142;28;19916;-71
2023/08/27 01:25:30;;;;;;;;;;;27.80;96.40;;;;;;5113894;28;19918;-72
2023/08/27 01:27:56;;;;;;;;;;;27.80;96.30;;;;;;5113598;28;19943;-71
2023/08/27 01:30:29;;;;;;;;;;;27.90;96.30;;;;;;5113630;28;20397;-70
2023/08/27 01:32:54;;;;;;;;;;;27.90;96.50;;;;;;5115272;28;19960;-70
2023/08/27 01:35:21;;;;;;;;;;;27.90;96.40;;;;;;5117800;28;19924;-70
2023/08/27 01:37:47;;;;;;;;;;;27.80;96.40;;;;;;5099524;28;19973;-70
2023/08/27 01:40:13;;;;;;;;;;;27.70;96.50;;;;;;5118009;28;20373;-70
2023/08/27 01:42:39;;;;;;;;;;;27.80;96.50;;;;;;5117247;28;19938;-71
2023/08/27 01:45:06;;;;;;;;;;;27.70;96.50;;;;;;5117447;28;20427;-70
2023/08/27 01:47:32;;;;;;;;;;;27.80;96.40;;;;;;5099121;28;19907;-70
2023/08/27 01:49:58;;;;;;;;;;;27.80;96.40;;;;;;5098947;28;19980;-70
2023/08/27 01:52:23;;;;;;;;;;;27.70;96.40;;;;;;5117111;28;19984;-71
2023/08/27 01:54:49;;;;;;;;;;;27.80;96.40;;;;;;5117203;28;19915;-70
2023/08/27 01:57:15;;;;;;;;;;;27.80;96.40;;;;;;5116979;28;20287;-71
2023/08/27 01:59:41;;;;;;;;;;;27.80;96.60;;;;;;5117378;28;20386;-71
2023/08/27 02:02:07;;;;;;;;;;;27.70;96.90;;;;;;5117256;28;19927;-70
2023/08/27 02:04:32;;;;;;;;;;;27.60;97.20;;;;;;5117071;28;19988;-70
2023/08/27 02:06:58;;;;;;;;;;;27.50;97.50;;;;;;5117061;28;20352;-70
2023/08/27 02:09:24;;;;;;;;;;;27.40;97.70;;;;;;5117006;28;19915;-70
2023/08/27 02:11:50;;;;;;;;;;;27.30;97.80;;;;;;5117173;28;20363;-71
2023/08/27 02:14:16;;;;;;;;;;;27.30;98.00;;;;;;5116787;28;19961;-70
2023/08/27 02:16:42;;;;;;;;;;;27.30;98.20;;;;;;5098550;28;19990;-69
2023/08/27 02:19:08;;;;;;;;;;;27.30;98.30;;;;;;5117023;28;19919;-69
2023/08/27 02:21:34;;;;;;;;;;;27.30;98.20;;;;;;5116648;28;20355;-70
2023/08/27 02:24:00;;;;;;;;;;;27.20;98.20;;;;;;5116495;28;19941;-70
2023/08/27 02:26:26;;;;;;;;;;;27.20;98.20;;;;;;5116973;28;19915;-70
2023/08/27 02:28:52;;;;;;;;;;;27.10;98.50;;;;;;5116549;28;19908;-70
2023/08/27 02:31:18;;;;;;;;;;;27.00;98.80;;;;;;5116827;28;20006;-71
2023/08/27 02:33:45;;;;;;;;;;;27.00;98.90;;;;;;5116766;28;19912;-70
2023/08/27 02:36:11;;;;;;;;;;;27.00;99.10;;;;;;5116253;28;19920;-70
2023/08/27 02:38:37;;;;;;;;;;;26.90;99.20;;;;;;5116700;28;20260;-70
2023/08/27 02:41:02;;;;;;;;;;;27.00;99.30;;;;;;5098048;28;19954;-70
2023/08/27 02:43:28;;;;;;;;;;;27.00;99.30;;;;;;5115516;28;20032;-70
2023/08/27 02:45:54;;;;;;;;;;;27.00;99.30;;;;;;5115727;28;20332;-70
2023/08/27 02:48:21;;;;;;;;;;;27.10;99.30;;;;;;5116137;28;19998;-71
2023/08/27 02:50:47;;;;;;;;;;;27.20;99.20;;;;;;5116223;28;19908;-70
2023/08/27 02:53:13;;;;;;;;;;;27.20;99.20;;;;;;5116193;28;19930;-70
2023/08/27 02:55:39;;;;;;;;;;;27.20;99.10;;;;;;5116194;28;19908;-70
2023/08/27 02:58:05;;;;;;;;;;;27.20;99.20;;;;;;5115945;28;19915;-70
2023/08/27 03:00:30;;;;;;;;;;;27.30;99.10;;;;;;5097582;28;20385;-70
2023/08/27 03:02:56;;;;;;;;;;;27.30;99.00;;;;;;5116094;28;20018;-70
2023/08/27 03:05:22;;;;;;;;;;;27.20;99.00;;;;;;5116235;28;19912;-70
2023/08/27 03:07:48;;;;;;;;;;;27.30;99.00;;;;;;5116486;28;19943;-71
2023/08/27 03:10:14;;;;;;;;;;;27.40;98.90;;;;;;5116099;28;19912;-70
2023/08/27 03:12:40;;;;;;;;;;;27.40;99.00;;;;;;5115800;28;19908;-70
2023/08/27 03:15:06;;;;;;;;;;;27.50;98.80;;;;;;5115740;28;19983;-70
2023/08/27 03:17:32;;;;;;;;;;;27.60;98.50;;;;;;5115683;28;19946;-70
2023/08/27 03:19:58;;;;;;;;;;;27.60;98.20;;;;;;5115516;28;19951;-69
2023/08/27 03:22:24;;;;;;;;;;;27.70;98.00;;;;;;5115828;28;20446;-69
2023/08/27 03:24:50;;;;;;;;;;;27.70;98.00;;;;;;5115591;28;20003;-69
2023/08/27 03:27:16;;;;;;;;;;;27.70;98.00;;;;;;5115318;28;19914;-70
2023/08/27 03:29:41;;;;;;;;;;;27.80;98.00;;;;;;5115456;28;20420;-69
2023/08/27 03:32:07;;;;;;;;;;;27.80;98.10;;;;;;5115352;28;19915;-69
2023/08/27 03:34:33;;;;;;;;;;;27.80;98.10;;;;;;5096851;28;19908;-69
2023/08/27 03:36:59;;;;;;;;;;;27.80;97.90;;;;;;5115521;28;20011;-69
2023/08/27 03:39:25;;;;;;;;;;;27.70;97.70;;;;;;5115454;28;19907;-70
2023/08/27 03:41:51;;;;;;;;;;;27.70;98.10;;;;;;5115117;28;20279;-69
2023/08/27 03:44:16;;;;;;;;;;;27.70;97.90;;;;;;5096510;28;19916;-70
2023/08/27 03:46:42;;;;;;;;;;;27.70;97.80;;;;;;5115063;28;19908;-69
2023/08/27 03:49:08;;;;;;;;;;;27.70;97.90;;;;;;5115490;28;19962;-69
2023/08/27 03:51:34;;;;;;;;;;;27.70;98.10;;;;;;5114759;28;19907;-70
2023/08/27 03:54:00;;;;;;;;;;;27.60;98.20;;;;;;5114812;28;19990;-69
2023/08/27 03:56:26;;;;;;;;;;;27.60;98.50;;;;;;5115113;28;20023;-69
2023/08/27 03:58:52;;;;;;;;;;;27.50;98.20;;;;;;5114600;28;20375;-70
2023/08/27 04:01:18;;;;;;;;;;;27.50;98.30;;;;;;5114630;28;19914;-70
2023/08/27 04:03:43;;;;;;;;;;;27.50;98.30;;;;;;5114803;28;19977;-70
2023/08/27 04:06:12;;;;;;;;;;;27.50;97.80;;;;;;5114934;28;19950;-70
2023/08/27 04:08:38;;;;;;;;;;;27.60;97.10;;;;;;5114696;28;20356;-70
2023/08/27 04:11:05;;;;;;;;;;;27.70;96.60;;;;;;5115205;28;19908;-70
2023/08/27 04:13:31;;;;;;;;;;;27.70;96.50;;;;;;5114521;28;19908;-70
2023/08/27 04:16:01;;;;;;;;;;;27.90;95.80;;;;;;5115071;28;19912;-70
2023/08/27 04:18:27;;;;;;;;;;;27.90;95.40;;;;;;5114808;28;20296;-70
2023/08/27 04:20:53;;;;;;;;;;;28.00;95.10;;;;;;5114464;28;19915;-70
2023/08/27 04:23:18;;;;;;;;;;;27.90;96.50;;;;;;5114483;28;19923;-70
2023/08/27 04:25:44;;;;;;;;;;;27.70;96.60;;;;;;5114385;28;19907;-70
2023/08/27 04:28:10;;;;;;;;;;;27.70;96.30;;;;;;5114243;28;19907;-70
2023/08/27 04:30:37;;;;;;;;;;;27.60;96.10;;;;;;5114385;28;19907;-70
2023/08/27 04:33:05;;;;;;;;;;;27.60;96.10;;;;;;5114489;28;19908;-70
2023/08/27 04:35:31;;;;;;;;;;;27.70;95.40;;;;;;5114245;28;19920;-70
2023/08/27 04:37:56;;;;;;;;;;;27.70;95.30;;;;;;5114495;28;19956;-71
2023/08/27 04:40:22;;;;;;;;;;;27.60;95.20;;;;;;5114423;28;19908;-70
2023/08/27 04:42:48;;;;;;;;;;;27.60;95.30;;;;;;5113956;28;19920;-71
2023/08/27 04:45:14;;;;;;;;;;;27.60;95.40;;;;;;5114645;28;19943;-70
2023/08/27 04:47:41;;;;;;;;;;;27.60;95.80;;;;;;5114436;28;19907;-70
2023/08/27 04:50:07;;;;;;;;;;;27.60;95.80;;;;;;5095723;28;19919;-70
2023/08/27 04:52:34;;;;;;;;;;;27.50;96.30;;;;;;5113968;28;19955;-70
2023/08/27 04:55:00;;;;;;;;;;;27.50;96.30;;;;;;5113970;28;19999;-71
2023/08/27 04:57:26;;;;;;;;;;;27.50;96.50;;;;;;5113789;28;19908;-71
2023/08/27 04:59:54;;;;;;;;;;;27.60;96.50;;;;;;5113928;28;19908;-71
2023/08/27 05:02:19;;;;;;;;;;;27.60;96.00;;;;;;5114297;28;20415;-71
2023/08/27 05:04:46;;;;;;;;;;;27.70;95.90;;;;;;5113867;28;19908;-70
2023/08/27 05:07:11;;;;;;;;;;;27.70;96.20;;;;;;5094852;28;20004;-71
2023/08/27 05:09:37;;;;;;;;;;;27.70;96.40;;;;;;5113857;28;19992;-71
2023/08/27 05:12:03;;;;;;;;;;;27.60;96.60;;;;;;5113830;28;20382;-70
2023/08/27 05:14:29;;;;;;;;;;;27.40;96.80;;;;;;5113599;28;20447;-71
2023/08/27 05:16:55;;;;;;;;;;;27.30;96.80;;;;;;5113739;28;19915;-70
2023/08/27 05:19:21;;;;;;;;;;;27.20;97.10;;;;;;5113751;28;19999;-70
2023/08/27 05:21:46;;;;;;;;;;;27.10;97.30;;;;;;5113897;28;20022;-71
2023/08/27 05:24:12;;;;;;;;;;;27.30;97.20;;;;;;5113539;28;19955;-71
2023/08/27 05:26:38;;;;;;;;;;;28.00;96.70;;;;;;5114171;28;19915;-71
2023/08/27 05:29:04;;;;;;;;;;;28.70;96.00;;;;;;5113374;28;19968;-71
2023/08/27 05:31:30;;;;;;;;;;;29.30;95.50;;;;;;5113502;28;19943;-70
2023/08/27 05:33:56;;;;;;;;;;;30.10;94.60;;;;;;5113542;28;19914;-71
2023/08/27 05:36:22;;;;;;;;;;;30.30;94.20;;;;;;5113474;28;19920;-71
2023/08/27 05:38:48;;;;;;;;;;;30.60;93.80;;;;;;5114007;28;19911;-71
2023/08/27 05:41:14;;;;;;;;;;;31.00;93.60;;;;;;5113493;28;19912;-71
2023/08/27 05:43:41;;;;;;;;;;;31.40;93.20;;;;;;5113384;28;20063;-71
2023/08/27 05:46:07;;;;;;;;;;;31.50;93.10;;;;;;5095119;28;20402;-71
2023/08/27 05:48:33;;;;;;;;;;;32.10;92.50;;;;;;5095122;28;19908;-71
2023/08/27 05:51:03;;;;;;;;;;;32.70;92.20;;;;;;5113463;28;19915;-71
2023/08/27 05:53:29;;;;;;;;;;;33.00;91.90;;;;;;5094973;28;19908;-71
2023/08/27 05:55:54;;;;;;;;;;;33.50;91.00;;;;;;5113437;28;20352;-73
2023/08/27 05:58:20;;;;;;;;;;;33.60;91.10;;;;;;5113353;28;19961;-71
2023/08/27 06:00:46;;;;;;;;;;;33.90;90.70;;;;;;5095112;28;20006;-71
2023/08/27 06:03:12;;;;;;;;;;;34.80;90.00;;;;;;5113219;28;20372;-71
2023/08/27 06:05:38;;;;;;;;;;;34.80;88.50;;;;;;5113551;28;19908;-71
2023/08/27 06:08:04;;;;;;;;;;;35.00;87.50;;;;;;5113335;28;20018;-71
2023/08/27 06:10:34;;;;;;;;;;;35.10;87.60;;;;;;5113327;28;19944;-71
2023/08/27 06:13:00;;;;;;;;;;;35.00;87.50;;;;;;5113159;28;19931;-71
2023/08/27 06:15:27;;;;;;;;;;;35.90;86.80;;;;;;5113151;28;20301;-71
2023/08/27 06:17:54;;;;;;;;;;;36.90;84.80;;;;;;5113147;28;19908;-71
2023/08/27 06:20:20;;;;;;;;;;;37.00;83.90;;;;;;5116900;28;19962;-71
2023/08/27 06:22:46;;;;;;;;;;;36.80;83.70;;;;;;5098302;28;19916;-71
2023/08/27 06:25:12;;;;;;;;;;;37.10;82.90;;;;;;5098368;28;19908;-71
2023/08/27 06:27:38;;;;;;;;;;;37.00;83.20;;;;;;5117072;28;19912;-71
2023/08/27 06:30:04;;;;;;;;;;;37.00;82.40;;;;;;5117572;28;20367;-71
2023/08/27 06:32:31;;;;;;;;;;;37.10;83.20;;;;;;5116696;28;20383;-72
2023/08/27 06:34:57;;;;;;;;;;;37.90;82.10;;;;;;5116482;28;19999;-71
2023/08/27 06:37:23;;;;;;;;;;;38.30;81.60;;;;;;5116953;28;20352;-71
2023/08/27 06:39:49;;;;;;;;;;;38.10;80.60;;;;;;5116948;28;19908;-71
2023/08/27 06:42:15;;;;;;;;;;;37.50;81.50;;;;;;5116427;28;19990;-72
2023/08/27 06:44:41;;;;;;;;;;;38.10;81.80;;;;;;5116341;28;19953;-71
2023/08/27 06:47:07;;;;;;;;;;;39.30;80.40;;;;;;5116730;28;20329;-72
2023/08/27 06:49:33;;;;;;;;;;;39.80;79.30;;;;;;5116398;28;19908;-72
2023/08/27 06:51:58;;;;;;;;;;;40.10;77.50;;;;;;5116665;28;19911;-71
2023/08/27 06:54:24;;;;;;;;;;;41.00;76.40;;;;;;5116225;28;19908;-72
2023/08/27 06:56:50;;;;;;;;;;;41.30;74.00;;;;;;5116866;28;19915;-72
2023/08/27 06:59:16;;;;;;;;;;;42.10;73.20;;;;;;5115908;28;19908;-70
2023/08/27 07:01:42;;;;;;;;;;;42.60;71.90;;;;;;5115754;28;19912;-70
2023/08/27 07:04:08;;;;;;;;;;;42.90;70.00;;;;;;5116592;28;19923;-70
2023/08/27 07:06:34;;;;;;;;;;;43.40;69.00;;;;;;5116034;28;19995;-71
2023/08/27 07:09:00;;;;;;;;;;;43.50;68.90;;;;;;5116502;28;19907;-70
2023/08/27 07:11:26;;;;;;;;;;;43.70;66.90;;;;;;5115797;28;20315;-72
2023/08/27 07:13:52;;;;;;;;;;;43.60;67.30;;;;;;5115455;28;19907;-70
2023/08/27 07:16:19;;;;;;;;;;;41.70;69.00;;;;;;5116188;28;19912;-71
2023/08/27 07:18:46;;;;;;;;;;;41.60;70.20;;;;;;5115951;28;20007;-72
2023/08/27 07:21:12;;;;;;;;;;;40.90;70.70;;;;;;5115500;28;20006;-69
2023/08/27 07:23:39;;;;;;;;;;;40.20;72.10;;;;;;5115491;28;19938;-70
2023/08/27 07:26:05;;;;;;;;;;;40.40;71.30;;;;;;5097307;28;19908;-71
2023/08/27 07:28:31;;;;;;;;;;;41.10;70.40;;;;;;5115527;28;20352;-70
2023/08/27 07:30:57;;;;;;;;;;;41.10;69.30;;;;;;5096544;28;20377;-71
2023/08/27 07:33:22;;;;;;;;;;;40.90;69.70;;;;;;5115502;28;19919;-71
2023/08/27 07:35:48;;;;;;;;;;;40.60;69.70;;;;;;5115136;28;19924;-70
2023/08/27 07:38:14;;;;;;;;;;;39.70;71.30;;;;;;5115604;28;19919;-70
2023/08/27 07:40:40;;;;;;;;;;;38.60;72.40;;;;;;5115348;28;19908;-70
2023/08/27 07:43:06;;;;;;;;;;;37.90;73.80;;;;;;5115030;28;19965;-70
2023/08/27 07:45:32;;;;;;;;;;;37.80;74.90;;;;;;5115110;28;19958;-70
2023/08/27 07:48:00;;;;;;;;;;;38.20;74.80;;;;;;5114658;28;21735;-71
2023/08/27 07:50:26;;;;;;;;;;;38.00;74.70;;;;;;5115132;28;20007;-70
2023/08/27 07:52:53;;;;;;;;;;;38.20;75.60;;;;;;5114953;28;19970;-70
2023/08/27 07:55:19;;;;;;;;;;;37.70;76.50;;;;;;5096608;28;19915;-71
2023/08/27 07:57:45;;;;;;;;;;;37.50;77.80;;;;;;5114907;28;19912;-70
2023/08/27 08:00:13;;;;;;;;;;;37.90;78.40;;;;;;5114817;28;20267;-70
2023/08/27 08:02:40;;;;;;;;;;;37.60;80.60;;;;;;5114700;28;20317;-70
2023/08/27 08:05:06;;;;;;;;;;;37.60;80.30;;;;;;5114979;28;19927;-71
2023/08/27 08:07:33;;;;;;;;;;;37.90;80.80;;;;;;5114785;28;19953;-72
2023/08/27 08:10:02;;;;;;;;;;;38.10;81.30;;;;;;5115310;28;20272;-71
2023/08/27 08:12:28;;;;;;;;;;;38.20;81.90;;;;;;5115087;28;19916;-71
2023/08/27 08:14:54;;;;;;;;;;;38.20;82.10;;;;;;5114960;28;20241;-71
2023/08/27 08:17:20;;;;;;;;;;;38.10;81.70;;;;;;5096169;28;19957;-71
2023/08/27 08:19:46;;;;;;;;;;;37.70;84.20;;;;;;5114890;28;19923;-72
2023/08/27 08:22:12;;;;;;;;;;;37.80;84.40;;;;;;5114435;28;19960;-71
2023/08/27 08:24:37;;;;;;;;;;;37.60;84.30;;;;;;5114809;28;19918;-71
2023/08/27 08:27:03;;;;;;;;;;;37.00;85.00;;;;;;5114437;28;20427;-71
2023/08/27 08:29:32;;;;;;;;;;;37.40;85.80;;;;;;5114249;28;19908;-71
2023/08/27 08:31:59;;;;;;;;;;;37.40;85.20;;;;;;5114612;28;19915;-71
2023/08/27 08:34:27;;;;;;;;;;;37.70;86.80;;;;;;5114576;28;20348;-71
2023/08/27 08:36:55;;;;;;;;;;;37.80;87.70;;;;;;5114135;28;19940;-71
2023/08/27 08:39:22;;;;;;;;;;;37.30;89.40;;;;;;5114206;28;19965;-71
2023/08/27 08:41:54;;;;;;;;;;;37.60;90.10;;;;;;5095316;28;19916;-71
2023/08/27 08:44:40;;;;;;;;;;;37.50;90.00;;;;;;5114155;28;19912;-71
2023/08/27 08:47:08;;;;;;;;;;;37.60;89.30;;;;;;5099737;28;19995;-71
2023/08/27 08:49:35;;;;;;;;;;;37.40;88.20;;;;;;5114196;28;20003;-71
2023/08/27 08:52:03;;;;;;;;;;;37.30;87.60;;;;;;5095692;28;19968;-71
2023/08/27 08:54:29;;;;;;;;;;;37.50;86.00;;;;;;5114330;28;20293;-71
2023/08/27 08:56:57;;;;;;;;;;;37.20;86.30;;;;;;5114299;28;19960;-71
2023/08/27 08:59:27;;;;;;;;;;;37.30;86.90;;;;;;5113758;28;19915;-72
2023/08/27 09:01:52;;;;;;;;;;;37.10;89.20;;;;;;5113801;28;19912;-71
2023/08/27 09:04:19;;;;;;;;;;;36.90;90.10;;;;;;5095575;28;19919;-70
2023/08/27 09:06:46;;;;;;;;;;;36.60;91.60;;;;;;5095538;28;20331;-71
2023/08/27 09:09:13;;;;;;;;;;;36.60;92.60;;;;;;5114391;28;19908;-71
2023/08/27 09:11:39;;;;;;;;;;;36.20;93.30;;;;;;5114216;28;20253;-71
2023/08/27 09:14:05;;;;;;;;;;;36.00;92.90;;;;;;5113776;28;19968;-71
2023/08/27 09:16:30;;;;;;;;;;;36.10;92.10;;;;;;5113776;28;19914;-72
2023/08/27 09:18:56;;;;;;;;;;;36.20;91.50;;;;;;5113953;28;19907;-72
2023/08/27 09:21:22;;;;;;;;;;;36.30;91.50;;;;;;5114226;28;19907;-72
2023/08/27 09:23:48;;;;;;;;;;;36.00;92.20;;;;;;5113642;28;19920;-72
2023/08/27 09:26:14;;;;;;;;;;;35.90;92.50;;;;;;5114404;28;20347;-72
2023/08/27 09:28:40;;;;;;;;;;;35.90;92.60;;;;;;5113889;28;19953;-72
2023/08/27 09:31:09;;;;;;;;;;;36.10;92.40;;;;;;5095556;28;19915;-72
2023/08/27 09:33:40;;;;;;;;;;;36.00;92.80;;;;;;5095425;28;19952;-70
2023/08/27 09:36:07;;;;;;;;;;;35.80;91.90;;;;;;5113273;28;19920;-70
2023/08/27 09:38:34;;;;;;;;;;;35.70;92.30;;;;;;5095249;28;20065;-69
2023/08/27 09:41:16;;;;;;;;;;;35.70;92.40;;;;;;5095282;28;19908;-71
2023/08/27 09:43:52;;;;;;;;;;;35.60;93.10;;;;;;5113454;28;19915;-70
2023/08/27 09:46:18;;;;;;;;;;;35.40;93.30;;;;;;5114014;28;20010;-70
2023/08/27 09:48:56;;;;;;;;;;;35.40;94.30;;;;;;5113470;28;19908;-70
2023/08/27 09:51:22;;;;;;;;;;;35.50;94.70;;;;;;5114032;28;19987;-70
2023/08/27 09:53:48;;;;;;;;;;;35.60;94.50;;;;;;5096546;28;19911;-71
2023/08/27 09:56:15;;;;;;;;;;;35.80;94.20;;;;;;5117934;28;19914;-71
2023/08/27 09:58:41;;;;;;;;;;;35.50;93.40;;;;;;5117196;28;20006;-71
2023/08/27 10:01:07;;;;;;;;;;;35.00;92.80;;;;;;5117821;28;20368;-71
2023/08/27 10:03:33;;;;;;;;;;;35.00;93.30;;;;;;5117228;28;20022;-71
2023/08/27 10:06:02;;;;;;;;;;;34.90;93.20;;;;;;5117281;28;20003;-71
2023/08/27 10:08:28;;;;;;;;;;;34.90;92.60;;;;;;5117147;28;19919;-69
2023/08/27 10:11:14;;;;;;;;;;;34.70;92.60;;;;;;5116984;28;19953;-70
2023/08/27 10:13:42;;;;;;;;;;;34.50;90.60;;;;;;5116794;28;20274;-71
2023/08/27 10:16:08;;;;;;;;;;;34.40;92.40;;;;;;5116933;28;20386;-71
2023/08/27 10:18:35;;;;;;;;;;;34.50;90.80;;;;;;5116909;28;19908;-71
2023/08/27 10:21:00;;;;;;;;;;;34.20;83.90;;;;;;5117010;28;19955;-70
2023/08/27 10:23:29;;;;;;;;;;;34.30;90.90;;;;;;5097953;28;19923;-71
2023/08/27 10:25:56;;;;;;;;;;;34.40;90.10;;;;;;5116916;28;20366;-70
2023/08/27 10:28:22;;;;;;;;;;;34.50;90.90;;;;;;5116779;28;19908;-71
2023/08/27 10:30:50;;;;;;;;;;;34.70;90.80;;;;;;5116692;28;19912;-71
2023/08/27 10:33:17;;;;;;;;;;;35.10;90.60;;;;;;5117014;28;19930;-71
2023/08/27 10:35:44;;;;;;;;;;;35.10;90.10;;;;;;5116343;28;19927;-71
2023/08/27 10:38:10;;;;;;;;;;;35.10;90.40;;;;;;5116956;28;19908;-70
2023/08/27 10:40:37;;;;;;;;;;;34.80;88.10;;;;;;5098105;28;19998;-70
2023/08/27 10:43:09;;;;;;;;;;;35.00;87.90;;;;;;5115897;28;19916;-71
2023/08/27 10:45:38;;;;;;;;;;;35.10;88.00;;;;;;5116726;28;19908;-71
2023/08/27 10:48:04;;;;;;;;;;;35.40;86.70;;;;;;5116328;28;19931;-71
2023/08/27 10:51:02;;;;;;;;;;;35.30;85.80;;;;;;5116311;28;20287;-70
2023/08/27 10:53:38;;;;;;;;;;;35.30;85.60;;;;;;5033525;28;19909;-69
2023/08/27 10:56:25;;;;;;;;;;;35.40;84.40;;;;;;5033473;28;20004;-70
2023/08/27 10:58:50;;;;;;;;;;;35.30;85.00;;;;;;5033559;28;19954;-70
2023/08/27 11:01:18;;;;;;;;;;;35.40;83.10;;;;;;5033533;28;20379;-70
2023/08/27 11:03:57;;;;;;;;;;;35.50;82.90;;;;;;5033754;28;19917;-70
2023/08/27 11:06:44;;;;;;;;;;;35.30;83.50;;;;;;5032240;28;19916;-70
2023/08/27 11:09:15;;;;;;;;;;;35.60;84.20;;;;;;5035669;28;20424;-70
2023/08/27 11:11:45;;;;;;;;;;;35.60;84.10;;;;;;5033587;28;19909;-71
2023/08/27 11:14:11;;;;;;;;;;;35.50;84.10;;;;;;5033023;28;19909;-70
2023/08/27 11:16:44;;;;;;;;;;;35.70;83.20;;;;;;5033504;28;19909;-70
2023/08/27 11:19:11;;;;;;;;;;;35.70;82.30;;;;;;5033075;28;19910;-70
2023/08/27 11:21:42;;;;;;;;;;;35.60;79.40;;;;;;5032896;28;19909;-70
2023/08/27 11:24:17;;;;;;;;;;;35.10;79.90;;;;;;5032956;28;20070;-69
2023/08/27 11:26:43;;;;;;;;;;;35.20;78.00;;;;;;5033461;28;19909;-70
2023/08/27 11:29:10;;;;;;;;;;;35.20;77.70;;;;;;5078296;28;19908;-70
2023/08/27 11:31:40;;;;;;;;;;;35.20;76.30;;;;;;5115756;28;20321;-69
2023/08/27 11:34:06;;;;;;;;;;;35.30;76.50;;;;;;5115412;28;20409;-70
2023/08/27 11:36:33;;;;;;;;;;;35.30;79.20;;;;;;5093411;28;20049;-70
2023/08/27 11:39:01;;;;;;;;;;;35.40;77.60;;;;;;5094979;28;19908;-70
2023/08/27 11:41:36;;;;;;;;;;;35.60;77.20;;;;;;5095399;28;20349;-70
2023/08/27 11:44:03;;;;;;;;;;;35.60;76.30;;;;;;5094632;28;19916;-70
2023/08/27 11:46:28;;;;;;;;;;;35.50;74.50;;;;;;5095321;28;19921;-70
2023/08/27 11:48:54;;;;;;;;;;;35.50;74.70;;;;;;5094778;28;19909;-69
2023/08/27 11:51:20;;;;;;;;;;;35.50;75.60;;;;;;5095307;28;19916;-70
2023/08/27 11:53:46;;;;;;;;;;;35.30;75.70;;;;;;5094680;28;19961;-70
2023/08/27 11:56:13;;;;;;;;;;;35.50;75.60;;;;;;5094884;28;20360;-70
2023/08/27 11:58:42;;;;;;;;;;;35.30;77.20;;;;;;5094483;28;19913;-70
2023/08/27 12:01:11;;;;;;;;;;;35.50;74.50;;;;;;5094497;28;19966;-70
2023/08/27 12:03:39;;;;;;;;;;;35.50;75.90;;;;;;5094435;28;19916;-72
2023/08/27 12:06:05;;;;;;;;;;;35.40;74.90;;;;;;5094411;28;20002;-70
2023/08/27 12:08:34;;;;;;;;;;;35.20;78.70;;;;;;5094397;28;19940;-70
2023/08/27 12:11:01;;;;;;;;;;;35.20;81.50;;;;;;5093039;28;19908;-70
2023/08/27 12:13:27;;;;;;;;;;;35.50;80.20;;;;;;5094338;28;19960;-70
2023/08/27 12:15:53;;;;;;;;;;;35.60;83.10;;;;;;5094106;28;20314;-70
2023/08/27 12:18:19;;;;;;;;;;;35.20;86.20;;;;;;5094195;28;20390;-70
2023/08/27 12:20:48;;;;;;;;;;;35.40;84.50;;;;;;5094706;28;19959;-70
2023/08/27 12:23:15;;;;;;;;;;;35.10;82.40;;;;;;5093975;28;19916;-70
2023/08/27 12:25:54;;;;;;;;;;;35.10;81.20;;;;;;5092824;28;20343;-70
2023/08/27 12:28:20;;;;;;;;;;;35.00;78.70;;;;;;5067021;28;19916;-70
2023/08/27 12:30:49;;;;;;;;;;;34.80;78.60;;;;;;5053697;28;19915;-70
2023/08/27 12:33:15;;;;;;;;;;;35.00;78.30;;;;;;5053995;28;20328;-70
2023/08/27 12:35:47;;;;;;;;;;;35.30;78.60;;;;;;5063155;28;19952;-70
2023/08/27 12:38:14;;;;;;;;;;;35.20;77.10;;;;;;5075451;28;19908;-70
2023/08/27 12:40:40;;;;;;;;;;;35.10;78.60;;;;;;5073778;28;19909;-70
2023/08/27 12:43:06;;;;;;;;;;;35.50;79.30;;;;;;5073303;28;19943;-69
2023/08/27 12:45:31;;;;;;;;;;;35.50;79.70;;;;;;5073900;28;19951;-70
2023/08/27 12:48:02;;;;;;;;;;;35.60;76.40;;;;;;5073734;28;19954;-70
2023/08/27 12:50:30;;;;;;;;;;;35.40;76.00;;;;;;5074004;28;19912;-70
2023/08/27 12:52:56;;;;;;;;;;;35.60;76.50;;;;;;5091054;28;19908;-70
2023/08/27 12:55:22;;;;;;;;;;;35.60;75.80;;;;;;5114263;28;19960;-70
2023/08/27 12:57:48;;;;;;;;;;;35.60;75.20;;;;;;5113818;28;19911;-70
2023/08/27 13:00:14;;;;;;;;;;;35.80;73.70;;;;;;5114405;28;19908;-70
2023/08/27 13:02:40;;;;;;;;;;;36.10;72.60;;;;;;5113724;28;19923;-71
2023/08/27 13:05:07;;;;;;;;;;;35.70;72.80;;;;;;5113806;28;19907;-70
2023/08/27 13:07:32;;;;;;;;;;;35.60;71.70;;;;;;5113579;28;20015;-70
2023/08/27 13:09:58;;;;;;;;;;;35.30;71.20;;;;;;5095366;28;19953;-70
2023/08/27 13:12:24;;;;;;;;;;;35.20;71.70;;;;;;5114137;28;19907;-70
2023/08/27 13:14:50;;;;;;;;;;;35.50;73.70;;;;;;5113564;28;19907;-70
2023/08/27 13:17:16;;;;;;;;;;;35.50;74.50;;;;;;5113691;28;19923;-70
2023/08/27 13:19:41;;;;;;;;;;;35.80;75.80;;;;;;5114129;28;19994;-70
2023/08/27 13:22:08;;;;;;;;;;;35.60;75.10;;;;;;5095039;28;19912;-70
2023/08/27 13:24:34;;;;;;;;;;;35.50;78.20;;;;;;5113618;28;19912;-70
2023/08/27 13:26:59;;;;;;;;;;;35.60;79.90;;;;;;5114138;28;19908;-70
2023/08/27 13:29:26;;;;;;;;;;;34.90;83.00;;;;;;5116070;28;20325;-70
2023/08/27 13:31:56;;;;;;;;;;;34.70;86.30;;;;;;5117809;28;19907;-70
2023/08/27 13:34:21;;;;;;;;;;;34.50;86.40;;;;;;5117891;28;19911;-70
2023/08/27 13:36:47;;;;;;;;;;;34.60;87.30;;;;;;5117513;28;19920;-70
2023/08/27 13:39:13;;;;;;;;;;;34.90;89.10;;;;;;5118096;28;19912;-70
2023/08/27 13:41:39;;;;;;;;;;;35.10;90.10;;;;;;5117677;28;20264;-70
2023/08/27 13:44:05;;;;;;;;;;;34.90;90.40;;;;;;5117100;28;19911;-69
2023/08/27 13:46:31;;;;;;;;;;;35.00;90.80;;;;;;5117228;28;19976;-70
2023/08/27 13:48:57;;;;;;;;;;;35.10;90.60;;;;;;5117860;28;20418;-70
2023/08/27 13:51:22;;;;;;;;;;;34.90;91.10;;;;;;5117378;28;19960;-70
2023/08/27 13:53:48;;;;;;;;;;;34.60;91.30;;;;;;5117248;28;19911;-70
2023/08/27 13:56:14;;;;;;;;;;;34.80;91.00;;;;;;5117328;28;20241;-69
2023/08/27 13:58:41;;;;;;;;;;;35.00;91.30;;;;;;5117204;28;19915;-70
2023/08/27 14:01:07;;;;;;;;;;;35.20;91.90;;;;;;5117429;28;20361;-70
2023/08/27 14:03:33;;;;;;;;;;;34.90;91.50;;;;;;5098727;28;19916;-70
2023/08/27 14:05:59;;;;;;;;;;;34.80;92.10;;;;;;5117857;28;20371;-70
2023/08/27 14:08:25;;;;;;;;;;;34.80;92.80;;;;;;5117718;28;19971;-70
2023/08/27 14:10:51;;;;;;;;;;;34.90;93.00;;;;;;5117405;28;19908;-71
2023/08/27 14:13:18;;;;;;;;;;;34.50;93.20;;;;;;5116871;28;20379;-70
2023/08/27 14:15:44;;;;;;;;;;;34.60;92.90;;;;;;5117015;28;20287;-70